Grizzly Air Cargo 5120


PASI
Sitka Rocky Gutierrez Airport
Sitka, Alaska, US
PAJN
Juneau International Airport
Juneau, Alaska, US

Activity Log

Date Flight Route Aircraft Duration
06/21/2020 GRZ5120 HAWRD5 TNAKY B722 0h 40m
07/29/2019 GRZ514 HAWRD5 TNAKY B722 0h 28m
07/01/2019 GRZ514 HAWRD5 TNAKY B722 0h 35m
03/21/2019 GRZ514 HAWRD5 TNAKY B722 0h 40m

Route Details

Aircraft Information
Primary: Boeing 727-200F
Backup: Boeing 737-800BCF
Route Data
Distance: 97nm
Sched. Duration: 0h 35m
Avg. Duration: 0h 36m (+1m)
Times Flown: 4
Recm'd Route: HAWRD5 TNAKY
Planned Altitude: 16,000ft
Origin Wx: PASI 251053Z 08005KT 10SM OVC075 04/M06 A3044 RMK AO2 SLP307 T00441061
Dest. Wx: PAJN 251153Z 08008KT 10SM OVC100 02/M07 A3046 RMK AO2 SLP316 T00221067 10022 21028 58015
Notes:

Financial History
Total Freight: 161,316lbs
Average Load: 40,329lbs/flt
Fuel Used: 18,836lbs
Avg. Fuel Used: 4,709lbs/flt
Fuel Expense: $21,285
Avg. Fuel Expense: $5,321
Avg. Fuel Cost: $1.13/lbs
Total Gross Income: $235,679
Pilot Pay: $756
Total Expenses: $25,661
Total Revenue: $188,291
Average Revenue: $58,919.67